메인 페이지
METAR-TAF:

METAR-TAF

공항 :

돈므앙 국제공항

방콕, 타이

위도: 13-54-45N, 경도: 100-36-24E, 고도: 4m

현재 날씨관측

예보는 24분 전, 20:30시(UTC)에 발표되었습니다.
무풍
온도 26°C
습도 100%
기압 1006 hPa
시정: 9000m
고도 2000ft 상공 구름 조금

METAR: VTBD 202030Z 00000KT 9000 FEW020 26/26 Q1006 NOSIG

시각: 03:54 (20:54 UTC)

예보

예보는 3 시간 54분 전, 17:00시(UTC)에 발표되었습니다.
예보 대상 시간: 20일 18시부터 21일 24시까지 (UTC)
남서8kt
시정 10km 이상
고도 2000ft 상공 구름 조금
고도 10000ft 상공 구름 많음
일시적
21일 06시부터 21일 12시까지 (UTC)
서남서10kt, 순간 최대 풍속 20kt
시정: 5000m
고도 1800ft 상공 구름 조금, 적란운.
고도 3000ft 상공 구름 보통
고도 10000ft 상공 구름 많음
뇌우, 비

TAF: VTBD 201700Z 2018/2124 22008KT 9999 FEW020 BKN100 TEMPO 2106/2112 24010G20KT 5000 TSRA FEW018CB SCT030 BKN100

4,000개 이상의 공항 관측 자료 및 예보 (METAR 및 TAF 보고).

지도상에서 검색 가능한 기상관측소가 노란 점과 빨간 점으로 표시되어 있습니다.

기상관측소 명을 보려면 표시 위로 마우스를 이동하세요.

날씨 관측과 예보를 보려면 클릭하세요.

지도 변경 : 확대하려면 엑스 표시가 있는 녹색 버튼, 축소하려면 빼기 표시가 있는 녹색 버튼, 다음 페이지의 지도를 보려면 녹색 화살표를 클릭하세요.


METAR-TAF: